Time;durP1;ratioP1;P1;durP2;ratioP2;P2;SDS_P1;SDS_P2;PMS_P1;PMS_P2;Temp;Humidity;BMP_temperature;BMP_pressure;BME280_temperature;BME280_humidity;BME280_pressure;Samples;Min_cycle;Max_cycle;Signal;HPM_P1;HPM_P2
2022/02/06 00:01:33;;;;;;;1.83;1.00;;;;;;;1.61;72.19;97916.78;5082011;28;20104;-69
2022/02/06 00:04:00;;;;;;;2.88;1.02;;;;;;;1.69;72.17;97915.84;5083379;28;20044;-70
2022/02/06 00:06:29;;;;;;;4.20;0.93;;;;;;;1.84;71.39;97915.06;5072608;28;20048;-70
2022/02/06 00:08:56;;;;;;;2.25;0.93;;;;;;;1.90;70.99;97909.81;5071255;28;20545;-71
2022/02/06 00:11:22;;;;;;;3.45;1.33;;;;;;;1.91;70.91;97908.81;5085010;28;20055;-70
2022/02/06 00:13:49;;;;;;;2.67;0.90;;;;;;;1.89;70.81;97900.16;5088181;28;20032;-70
2022/02/06 00:16:15;;;;;;;2.72;0.90;;;;;;;1.91;70.69;97890.13;5072717;28;20094;-70
2022/02/06 00:18:44;;;;;;;3.78;1.00;;;;;;;1.96;69.79;97892.25;5069054;28;20036;-71
2022/02/06 00:21:14;;;;;;;2.30;0.80;;;;;;;2.00;69.91;97887.34;5081371;28;20044;-71
2022/02/06 00:23:42;;;;;;;1.88;0.75;;;;;;;2.05;69.48;97891.13;5089134;28;20066;-70
2022/02/06 00:26:18;;;;;;;6.32;1.00;;;;;;;1.98;70.18;97878.72;5088646;28;20533;-70
2022/02/06 00:28:58;;;;;;;3.97;1.00;;;;;;;2.04;69.85;97872.63;5077353;28;20059;-70
2022/02/06 00:32:23;;;;;;;5.25;1.10;;;;;;;1.95;69.99;97872.72;5071043;28;20048;-70
2022/02/06 00:39:46;;;;;;;1.95;1.00;;;;;;;2.16;69.04;97865.78;5082038;28;20737;-70
2022/02/06 00:42:14;;;;;;;2.20;0.55;;;;;;;2.19;68.95;97868.09;5088893;28;20097;-70
2022/02/06 00:44:41;;;;;;;5.22;0.90;;;;;;;2.30;68.27;97860.63;5075944;28;20041;-70
2022/02/06 00:47:07;;;;;;;3.08;1.10;;;;;;;2.29;68.38;97857.09;5079447;28;20036;-70
2022/02/06 00:49:35;;;;;;;3.83;1.00;;;;;;;2.26;68.23;97846.81;5087731;28;20051;-71
2022/02/06 00:52:09;;;;;;;2.10;0.82;;;;;;;2.32;68.17;97837.22;5088154;28;20044;-70
2022/02/06 00:54:35;;;;;;;2.90;0.68;;;;;;;2.39;68.04;97846.13;5070641;28;20041;-70
2022/02/06 00:57:02;;;;;;;3.92;0.88;;;;;;;2.46;67.55;97833.69;5080213;28;20040;-70
2022/02/06 00:59:29;;;;;;;2.75;0.95;;;;;;;2.47;67.21;97835.34;5086617;28;20032;-69
2022/02/06 01:01:56;;;;;;;4.20;1.67;;;;;;;2.54;67.07;97830.06;5087976;28;20147;-71
2022/02/06 01:04:23;;;;;;;5.38;0.90;;;;;;;2.49;66.91;97832.47;5087678;28;20048;-70
2022/02/06 01:06:49;;;;;;;2.13;1.05;;;;;;;2.56;66.70;97820.03;5082789;28;20063;-71
2022/02/06 01:09:17;;;;;;;6.40;1.55;;;;;;;2.61;66.64;97816.75;5083891;28;20078;-68
2022/02/06 01:11:44;;;;;;;2.25;0.80;;;;;;;2.48;67.32;97820.13;5083784;28;20119;-68
2022/02/06 01:16:49;;;;;;;3.38;0.70;;;;;;;2.58;66.96;97806.47;5067556;28;20032;-68
2022/02/06 01:19:21;;;;;;;1.65;0.55;;;;;;;2.56;67.28;97819.19;5067654;28;20558;-67
2022/02/06 01:21:59;;;;;;;1.80;0.60;;;;;;;2.56;66.52;97814.66;5067254;28;20432;-70
2022/02/06 01:24:46;;;;;;;4.53;1.10;;;;;;;2.60;66.74;97818.63;5071990;28;20036;-68
2022/02/06 01:27:22;;;;;;;0.77;0.50;;;;;;;2.65;66.10;97820.72;5086896;28;20051;-68
2022/02/06 01:30:01;;;;;;;3.38;0.70;;;;;;;2.62;66.04;97818.44;5067482;28;20044;-67
2022/02/06 01:32:38;;;;;;;5.53;0.80;;;;;;;2.61;66.47;97824.78;5081951;28;20048;-68
2022/02/06 01:35:11;;;;;;;1.83;0.68;;;;;;;2.63;66.21;97833.47;5087669;28;20048;-68
2022/02/06 01:37:53;;;;;;;4.47;0.70;;;;;;;2.64;65.74;97835.09;5070856;28;20041;-68
2022/02/06 01:43:03;;;;;;;6.15;0.73;;;;;;;2.53;66.48;97824.91;5087492;28;20036;-68
2022/02/06 01:46:06;;;;;;;2.40;0.82;;;;;;;2.60;65.84;97820.47;5071969;28;20044;-69
2022/02/06 02:03:18;;;;;;;3.35;0.68;;;;;;;2.21;69.54;97798.44;5079442;28;20045;-69
2022/02/06 02:13:44;;;;;;;3.05;0.82;;;;;;;2.11;68.84;97787.22;5085491;28;20086;-69
2022/02/06 02:19:27;;;;;;;2.85;1.05;;;;;;;2.12;68.94;97748.78;5082182;28;20709;-68
2022/02/06 02:25:04;;;;;;;2.55;0.80;;;;;;;2.52;67.97;97735.88;5055820;28;20102;-67
2022/02/06 02:30:24;;;;;;;2.90;0.93;;;;;;;2.77;67.29;97737.31;5068491;28;20557;-68
2022/02/06 02:46:24;;;;;;;2.35;0.40;;;;;;;3.14;66.31;97713.09;5071745;28;20048;-67
2022/02/06 02:48:52;;;;;;;5.57;0.98;;;;;;;3.18;65.88;97695.63;5065845;28;20143;-68
2022/02/06 02:51:21;;;;;;;2.30;0.65;;;;;;;3.31;65.49;97697.59;5074059;28;20039;-68
2022/02/06 02:53:55;;;;;;;2.53;0.73;;;;;;;3.29;65.75;97689.75;5076352;28;20443;-68
2022/02/06 02:56:41;;;;;;;5.63;0.90;;;;;;;3.31;65.57;97670.81;5077910;28;20553;-67
2022/02/06 02:59:25;;;;;;;6.07;0.90;;;;;;;3.30;65.40;97666.47;5089722;28;20093;-68
2022/02/06 03:01:56;;;;;;;5.43;0.70;;;;;;;3.33;65.23;97660.72;5099955;28;20047;-67
2022/02/06 03:04:23;;;;;;;3.90;1.13;;;;;;;3.46;64.68;97660.78;5072286;28;20036;-71
2022/02/06 03:06:50;;;;;;;1.58;0.60;;;;;;;3.44;64.50;97652.16;5064745;28;20052;-70
2022/02/06 03:09:18;;;;;;;1.58;0.60;;;;;;;3.45;64.96;97653.78;5076189;28;20561;-71
2022/02/06 03:11:45;;;;;;;3.75;0.65;;;;;;;3.44;64.55;97648.63;5085941;28;20565;-70
2022/02/06 03:14:17;;;;;;;2.03;0.40;;;;;;;3.48;64.42;97648.03;5074504;28;20093;-70
2022/02/06 03:17:01;;;;;;;2.17;0.90;;;;;;;3.55;64.09;97642.72;5064534;28;20045;-70
2022/02/06 03:19:29;;;;;;;2.72;0.75;;;;;;;3.50;64.15;97623.72;5066291;28;20041;-70
2022/02/06 03:21:57;;;;;;;2.33;0.57;;;;;;;3.55;63.69;97636.53;5064626;28;20045;-70
2022/02/06 03:24:26;;;;;;;0.77;0.38;;;;;;;3.54;64.06;97634.88;5075256;28;20032;-70
2022/02/06 03:26:55;;;;;;;3.72;0.80;;;;;;;3.51;64.07;97636.91;5069144;28;20040;-70
2022/02/06 03:29:24;;;;;;;3.13;0.95;;;;;;;3.60;63.60;97621.50;5068981;28;20044;-70
2022/02/06 03:31:53;;;;;;;2.35;0.80;;;;;;;3.47;64.33;97624.94;5070086;28;20450;-70
2022/02/06 03:34:19;;;;;;;7.10;1.05;;;;;;;3.54;63.73;97629.53;5065824;28;20032;-70
2022/02/06 03:36:46;;;;;;;1.55;0.90;;;;;;;3.50;63.91;97631.75;5065038;28;20443;-70
2022/02/06 03:39:15;;;;;;;2.72;0.70;;;;;;;3.45;64.31;97634.22;5077091;28;20059;-70
2022/02/06 03:41:53;;;;;;;2.03;0.80;;;;;;;3.50;64.01;97637.09;5084048;28;20044;-70
2022/02/06 03:44:36;;;;;;;3.03;0.80;;;;;;;3.50;63.96;97637.94;5085450;28;20040;-69
2022/02/06 03:49:55;;;;;;;4.85;0.60;;;;;;;3.47;64.32;97618.78;5084587;28;20044;-70
2022/02/06 03:52:28;;;;;;;2.15;0.68;;;;;;;3.53;63.90;97625.19;5071766;28;20550;-70
2022/02/06 03:54:55;;;;;;;2.22;0.50;;;;;;;3.47;64.32;97629.50;5068669;28;20515;-70
2022/02/06 03:57:21;;;;;;;3.22;0.73;;;;;;;3.54;64.12;97624.16;5083338;28;20708;-69
2022/02/06 03:59:48;;;;;;;3.67;1.48;;;;;;;3.38;64.83;97618.97;5084556;28;20048;-70
2022/02/06 04:02:14;;;;;;;1.38;0.60;;;;;;;3.54;64.26;97613.47;5088424;28;20088;-70
2022/02/06 04:04:41;;;;;;;2.33;0.60;;;;;;;3.46;64.45;97606.44;5088357;28;20093;-70
2022/02/06 04:07:12;;;;;;;1.48;0.98;;;;;;;3.40;64.56;97604.53;5074822;28;20041;-70
2022/02/06 04:09:45;;;;;;;3.35;0.70;;;;;;;3.37;64.69;97605.78;5083480;28;20051;-70
2022/02/06 04:12:14;;;;;;;2.75;0.80;;;;;;;3.32;65.23;97601.00;5074759;28;20048;-69
2022/02/06 04:15:04;;;;;;;3.08;0.50;;;;;;;3.32;64.93;97592.97;5079050;28;20090;-70
2022/02/06 04:17:44;;;;;;;5.93;1.10;;;;;;;3.23;65.66;97586.16;5088320;28;20044;-70
2022/02/06 04:20:11;;;;;;;5.85;0.90;;;;;;;3.18;65.46;97569.88;5068936;28;20231;-70
2022/02/06 04:22:37;;;;;;;5.78;1.15;;;;;;;3.13;65.51;97575.81;5068937;28;20074;-70
2022/02/06 04:25:05;;;;;;;3.72;0.88;;;;;;;3.12;65.56;97572.31;5086332;28;20437;-70
2022/02/06 04:27:31;;;;;;;2.88;0.93;;;;;;;3.12;65.92;97579.50;5088722;28;20097;-70
2022/02/06 04:29:58;;;;;;;4.82;1.38;;;;;;;2.93;66.47;97576.56;5080718;28;20449;-70
2022/02/06 04:32:27;;;;;;;2.42;1.00;;;;;;;2.98;66.35;97567.91;5089339;28;20481;-70
2022/02/06 04:34:55;;;;;;;4.57;0.75;;;;;;;3.01;66.29;97578.22;5071636;28;20389;-69
2022/02/06 04:43:03;;;;;;;3.60;0.93;;;;;;;2.94;67.03;97572.00;5075544;28;20627;-69
2022/02/06 04:48:21;;;;;;;4.85;0.95;;;;;;;2.85;67.27;97569.50;5068182;28;20110;-71
2022/02/06 05:15:35;;;;;;;3.17;0.80;;;;;;;2.68;69.10;97502.16;5067037;28;20032;-69
2022/02/06 05:18:27;;;;;;;2.47;0.70;;;;;;;2.69;69.10;97509.16;5067949;28;20041;-69
2022/02/06 05:21:25;;;;;;;4.50;1.35;;;;;;;2.68;69.02;97512.84;5066654;28;20041;-69
2022/02/06 05:24:19;;;;;;;3.90;1.02;;;;;;;2.62;69.22;97518.16;5067831;28;20044;-69
2022/02/06 05:34:13;;;;;;;4.75;1.13;;;;;;;2.58;69.64;97521.22;5070024;28;20542;-70
2022/02/06 05:36:40;;;;;;;2.60;0.55;;;;;;;2.57;69.52;97532.09;5074165;28;20523;-70
2022/02/06 05:39:06;;;;;;;3.75;0.90;;;;;;;2.65;69.45;97528.47;5067126;28;20083;-70
2022/02/06 05:41:33;;;;;;;6.90;0.98;;;;;;;2.67;69.20;97543.28;5067518;28;20059;-69
2022/02/06 05:43:59;;;;;;;3.63;0.80;;;;;;;2.69;69.13;97545.78;5066962;28;20052;-69
2022/02/06 05:46:26;;;;;;;4.30;1.08;;;;;;;2.70;69.21;97544.75;5074958;28;20087;-69
2022/02/06 05:48:52;;;;;;;2.17;1.30;;;;;;;2.68;69.02;97547.59;5085034;28;20511;-70
2022/02/06 05:51:20;;;;;;;6.72;1.10;;;;;;;2.77;69.48;97550.97;5083946;28;20063;-70
2022/02/06 05:53:47;;;;;;;2.80;0.85;;;;;;;2.79;69.21;97559.59;5086649;28;20036;-70
2022/02/06 05:56:16;;;;;;;6.22;1.60;;;;;;;2.80;69.14;97542.53;5079242;28;20041;-69
2022/02/06 05:58:43;;;;;;;2.40;0.80;;;;;;;2.88;68.88;97554.94;5073556;28;20044;-70
2022/02/06 06:01:11;;;;;;;0.82;0.52;;;;;;;2.86;69.13;97552.44;5077831;28;20518;-70
2022/02/06 06:03:37;;;;;;;1.90;1.02;;;;;;;2.86;69.35;97532.88;5082636;28;20044;-69
2022/02/06 06:06:04;;;;;;;5.70;1.42;;;;;;;2.86;69.15;97530.22;5085551;28;20460;-69
2022/02/06 06:08:30;;;;;;;2.85;1.02;;;;;;;2.89;69.14;97537.84;5084776;28;20105;-68
2022/02/06 06:10:57;;;;;;;3.50;1.13;;;;;;;2.93;68.89;97533.75;5078463;28;20040;-69
2022/02/06 06:13:23;;;;;;;4.20;1.00;;;;;;;2.92;68.88;97526.75;5086157;28;20093;-69
2022/02/06 06:15:50;;;;;;;4.20;1.13;;;;;;;2.93;69.00;97532.91;5086487;28;20046;-69
2022/02/06 06:18:17;;;;;;;3.58;0.90;;;;;;;2.93;68.82;97528.41;5086576;28;20059;-69
2022/02/06 06:20:45;;;;;;;2.00;0.82;;;;;;;2.95;68.82;97526.34;5084554;28;20517;-68
2022/02/06 06:23:12;;;;;;;2.58;0.95;;;;;;;3.01;68.53;97532.75;5086926;28;20044;-69
2022/02/06 06:25:40;;;;;;;7.50;1.15;;;;;;;3.01;68.80;97524.72;5086109;28;20287;-68
2022/02/06 06:28:08;;;;;;;3.50;1.48;;;;;;;3.03;68.73;97516.50;5082820;28;20044;-69
2022/02/06 06:30:35;;;;;;;4.00;1.10;;;;;;;3.02;68.70;97512.19;5076546;28;20649;-68
2022/02/06 06:33:05;;;;;;;5.90;1.48;;;;;;;2.95;68.80;97498.78;5082952;28;20544;-69
2022/02/06 06:35:53;;;;;;;3.85;1.15;;;;;;;3.04;68.67;97486.88;5084993;28;20060;-68
2022/02/06 06:38:19;;;;;;;3.97;0.95;;;;;;;2.99;68.64;97484.00;5086019;28;20102;-69
2022/02/06 06:40:46;;;;;;;4.32;1.05;;;;;;;3.03;68.58;97501.28;5075111;28;20045;-69
2022/02/06 06:43:12;;;;;;;2.47;0.70;;;;;;;3.12;68.75;97504.59;5065483;28;20492;-69
2022/02/06 06:45:39;;;;;;;3.08;0.80;;;;;;;3.15;68.12;97485.47;5064908;28;20044;-69
2022/02/06 06:48:05;;;;;;;5.28;0.82;;;;;;;3.08;68.74;97500.66;5068306;28;20506;-70
2022/02/06 06:50:33;;;;;;;2.42;0.80;;;;;;;3.06;68.73;97495.50;5074109;28;20097;-69
2022/02/06 06:53:04;;;;;;;4.65;0.88;;;;;;;3.09;68.90;97491.63;5066080;28;20412;-68
2022/02/06 06:55:33;;;;;;;5.03;1.02;;;;;;;3.06;69.06;97490.16;5071918;28;20041;-69
2022/02/06 06:58:39;;;;;;;4.78;1.05;;;;;;;3.07;69.06;97480.31;5085768;28;20089;-69
2022/02/06 07:01:07;;;;;;;4.70;1.65;;;;;;;3.15;68.68;97493.50;5082511;28;20087;-69
2022/02/06 07:03:35;;;;;;;4.43;1.25;;;;;;;3.19;68.70;97493.91;5065298;28;20500;-68
2022/02/06 07:06:02;;;;;;;2.60;0.70;;;;;;;3.27;68.45;97487.56;5065754;28;20522;-69
2022/02/06 07:08:29;;;;;;;4.28;1.15;;;;;;;3.21;68.51;97476.63;5065467;28;20040;-70
2022/02/06 07:10:57;;;;;;;8.75;2.10;;;;;;;3.23;68.45;97477.25;5079777;28;20878;-68
2022/02/06 07:13:23;;;;;;;5.93;1.20;;;;;;;3.28;68.58;97475.84;5082706;28;20073;-69
2022/02/06 07:15:52;;;;;;;5.18;1.42;;;;;;;3.27;68.38;97458.94;5070365;28;20085;-69
2022/02/06 07:18:20;;;;;;;2.30;1.50;;;;;;;3.30;68.37;97455.88;5080342;28;20062;-71
2022/02/06 07:20:48;;;;;;;6.40;1.42;;;;;;;3.36;68.11;97451.56;5072986;28;20040;-69
2022/02/06 07:23:16;;;;;;;1.80;0.52;;;;;;;3.45;67.97;97453.00;5084135;28;20036;-69
2022/02/06 07:25:47;;;;;;;4.28;1.17;;;;;;;3.46;67.67;97451.16;5079888;28;20044;-69
2022/02/06 07:28:16;;;;;;;6.60;1.63;;;;;;;3.36;68.35;97444.34;5074348;28;20078;-69
2022/02/06 07:30:45;;;;;;;4.47;1.05;;;;;;;3.38;68.47;97431.59;5080276;28;20523;-69
2022/02/06 07:33:14;;;;;;;7.80;1.30;;;;;;;3.39;68.30;97435.06;5089361;28;20097;-69
2022/02/06 07:35:41;;;;;;;2.25;1.00;;;;;;;3.51;68.11;97433.44;5089143;28;20029;-69
2022/02/06 07:38:08;;;;;;;5.72;1.30;;;;;;;3.49;68.14;97424.81;5086061;28;20450;-60
2022/02/06 07:40:34;;;;;;;3.53;1.10;;;;;;;3.81;68.38;97412.66;5084664;28;20097;-56
2022/02/06 07:43:01;;;;;;;5.65;1.02;;;;;;;3.98;67.20;97421.09;5085460;28;20707;-53
2022/02/06 07:45:34;;;;;;;2.50;0.75;;;;;;;4.02;66.40;97425.00;5077486;28;20102;-54
2022/02/06 07:48:03;;;;;;;6.82;1.10;;;;;;;3.93;67.12;97413.66;5086888;28;20044;-51
2022/02/06 07:50:30;;;;;;;5.82;0.98;;;;;;;4.03;68.46;97397.97;5087153;28;20105;-53
2022/02/06 07:52:57;;;;;;;4.05;1.00;;;;;;;4.10;66.73;97407.88;5074457;28;20442;-52
2022/02/06 07:55:23;;;;;;;6.22;1.13;;;;;;;4.08;66.99;97420.63;5086246;28;20115;-55
2022/02/06 07:57:50;;;;;;;3.38;1.00;;;;;;;4.18;67.55;97404.13;5076874;28;20040;-50
2022/02/06 08:00:17;;;;;;;2.50;0.60;;;;;;;4.02;66.98;97392.84;5081912;28;20052;-55
2022/02/06 08:02:43;;;;;;;7.13;2.15;;;;;;;3.94;67.71;97369.75;5088199;28;20048;-53
2022/02/06 08:05:10;;;;;;;4.68;0.93;;;;;;;4.00;67.17;97360.06;5085230;28;20039;-67
2022/02/06 08:07:39;;;;;;;6.28;0.93;;;;;;;3.76;68.03;97375.78;5074244;28;20049;-67
2022/02/06 08:10:06;;;;;;;4.80;1.05;;;;;;;3.70;68.43;97371.25;5078809;28;20572;-70
2022/02/06 08:12:36;;;;;;;6.00;1.08;;;;;;;3.60;68.96;97369.81;5084593;28;20036;-68
2022/02/06 08:15:06;;;;;;;3.42;1.38;;;;;;;3.58;68.87;97361.16;5086022;28;20097;-66
2022/02/06 08:17:39;;;;;;;5.25;1.33;;;;;;;3.58;68.89;97349.63;5078403;28;20051;-66
2022/02/06 08:20:08;;;;;;;3.42;1.38;;;;;;;3.62;68.60;97353.53;5083085;28;20059;-66
2022/02/06 08:22:35;;;;;;;4.10;1.38;;;;;;;3.70;68.72;97345.28;5076780;28;20048;-67
2022/02/06 08:25:02;;;;;;;3.92;0.88;;;;;;;3.75;68.41;97353.53;5085493;28;20055;-67
2022/02/06 08:27:28;;;;;;;6.03;1.70;;;;;;;3.78;68.17;97338.88;5086446;28;20051;-66
2022/02/06 08:29:56;;;;;;;3.53;0.90;;;;;;;3.84;68.17;97342.59;5082088;28;20453;-67
2022/02/06 08:32:26;;;;;;;3.22;1.10;;;;;;;3.91;67.78;97330.03;5075392;28;20590;-66
2022/02/06 08:34:54;;;;;;;3.53;1.17;;;;;;;4.03;67.77;97322.94;5086431;28;20042;-67
2022/02/06 08:37:22;;;;;;;8.07;1.63;;;;;;;4.18;66.92;97321.06;5084164;28;20665;-67
2022/02/06 08:39:49;;;;;;;2.85;1.05;;;;;;;4.22;66.94;97317.75;5081861;28;20054;-67
2022/02/06 08:42:16;;;;;;;4.93;1.58;;;;;;;4.36;66.47;97323.06;5085999;28;20048;-67
2022/02/06 08:44:45;;;;;;;2.53;0.88;;;;;;;4.28;66.76;97316.09;5080499;28;20455;-67
2022/02/06 08:47:15;;;;;;;2.92;0.95;;;;;;;4.34;66.74;97328.63;5086131;28;20052;-66
2022/02/06 08:49:44;;;;;;;8.55;1.63;;;;;;;4.28;67.06;97324.13;5085888;28;20641;-67
2022/02/06 08:52:12;;;;;;;4.35;0.88;;;;;;;4.36;67.08;97326.56;5074591;28;20725;-67
2022/02/06 08:54:39;;;;;;;1.73;0.70;;;;;;;4.42;67.26;97314.97;5081798;28;20051;-67
2022/02/06 08:57:19;;;;;;;1.52;0.60;;;;;;;4.52;66.99;97327.09;5075158;28;20661;-66
2022/02/06 08:59:45;;;;;;;3.38;0.82;;;;;;;4.38;67.50;97308.41;5089623;28;20055;-67
2022/02/06 09:02:12;;;;;;;1.90;0.77;;;;;;;4.52;67.24;97325.25;5086296;28;20048;-66
2022/02/06 09:04:39;;;;;;;4.45;1.00;;;;;;;4.50;67.13;97316.56;5084402;28;20448;-66
2022/02/06 09:07:05;;;;;;;3.05;0.93;;;;;;;4.31;67.88;97320.19;5077025;28;20113;-66
2022/02/06 09:09:33;;;;;;;3.38;1.10;;;;;;;4.36;67.79;97329.25;5085440;28;20052;-66
2022/02/06 09:12:00;;;;;;;3.65;1.02;;;;;;;4.34;67.92;97331.31;5071051;28;20071;-66
2022/02/06 09:14:28;;;;;;;6.57;1.55;;;;;;;4.33;68.29;97326.97;5083038;28;20048;-66
2022/02/06 09:16:55;;;;;;;3.13;1.02;;;;;;;4.27;69.68;97319.78;5081024;28;20064;-66
2022/02/06 09:19:23;;;;;;;1.10;0.60;;;;;;;4.23;69.31;97310.50;5084215;28;20040;-67
2022/02/06 09:21:50;;;;;;;4.63;1.27;;;;;;;4.26;69.57;97310.94;5085065;28;20634;-67
2022/02/06 09:24:17;;;;;;;3.20;1.17;;;;;;;4.21;69.54;97296.50;5083357;28;20051;-67
2022/02/06 09:26:44;;;;;;;5.53;2.35;;;;;;;4.13;70.61;97294.91;5085296;28;20093;-67
2022/02/06 09:29:10;;;;;;;5.43;2.20;;;;;;;4.11;71.68;97286.25;5084809;28;20047;-66
2022/02/06 09:31:37;;;;;;;5.50;2.20;;;;;;;4.20;71.61;97290.31;5081175;28;20035;-67
2022/02/06 09:36:31;;;;;;;5.95;2.95;;;;;;;4.18;70.95;97289.72;5080622;28;20505;-66
2022/02/06 09:38:58;;;;;;;8.38;2.35;;;;;;;4.18;71.28;97284.38;5084092;28;20055;-67
2022/02/06 09:41:29;;;;;;;10.20;4.60;;;;;;;4.30;70.52;97271.09;5072461;28;20607;-66
2022/02/06 09:43:58;;;;;;;7.80;3.35;;;;;;;4.33;71.20;97259.13;5075962;28;20040;-66
2022/02/06 09:46:46;;;;;;;5.38;1.20;;;;;;;4.40;70.83;97257.25;5071887;28;20108;-70
2022/02/06 09:49:14;;;;;;;8.75;2.33;;;;;;;4.36;71.54;97248.00;5067974;28;20055;-68
2022/02/06 09:51:44;;;;;;;5.68;2.17;;;;;;;4.37;72.23;97246.94;5079062;28;20041;-68
2022/02/06 09:54:16;;;;;;;4.15;0.90;;;;;;;4.46;71.67;97234.94;5082758;28;20048;-63
2022/02/06 09:56:46;;;;;;;3.50;1.48;;;;;;;4.54;71.74;97223.13;5084049;28;20043;-65
2022/02/06 09:59:21;;;;;;;3.78;1.27;;;;;;;4.54;71.54;97225.81;5082132;28;20511;-65
2022/02/06 10:01:51;;;;;;;3.65;1.17;;;;;;;4.54;71.81;97223.94;5084728;28;20550;-63
2022/02/06 10:04:21;;;;;;;9.10;1.85;;;;;;;4.53;71.90;97216.94;5084303;28;20040;-64
2022/02/06 10:07:07;;;;;;;1.92;0.70;;;;;;;4.61;71.18;97218.53;5075435;28;20492;-64
2022/02/06 10:09:42;;;;;;;4.53;1.00;;;;;;;4.51;71.53;97213.66;5074795;28;20465;-63
2022/02/06 10:12:10;;;;;;;1.77;0.57;;;;;;;4.63;70.54;97210.28;5092631;28;20051;-66
2022/02/06 10:14:36;;;;;;;6.55;2.40;;;;;;;4.55;71.18;97200.66;5084227;28;20100;-63
2022/02/06 10:17:03;;;;;;;3.30;0.75;;;;;;;4.56;71.28;97215.69;5081232;28;20040;-65
2022/02/06 10:19:31;;;;;;;2.42;0.80;;;;;;;4.73;70.10;97197.22;5083933;28;20594;-65
2022/02/06 10:21:59;;;;;;;1.88;0.80;;;;;;;4.69;69.94;97190.66;5084360;28;20106;-64
2022/02/06 10:24:32;;;;;;;2.95;0.80;;;;;;;4.73;70.06;97182.97;5083040;28;20055;-64
2022/02/06 10:27:21;;;;;;;3.10;0.90;;;;;;;4.79;68.99;97177.56;5082001;28;20116;-64
2022/02/06 10:29:58;;;;;;;4.68;0.73;;;;;;;4.98;68.41;97166.88;5082209;28;20102;-65
2022/02/06 10:32:25;;;;;;;1.70;0.43;;;;;;;5.18;67.88;97168.53;5085203;28;20051;-68
2022/02/06 10:35:09;;;;;;;1.67;0.73;;;;;;;5.16;67.94;97159.88;5084107;28;20052;-65
2022/02/06 10:37:35;;;;;;;2.28;0.80;;;;;;;5.15;67.66;97166.28;5078327;28;20043;-68
2022/02/06 10:40:06;;;;;;;2.70;0.77;;;;;;;5.18;67.51;97149.75;5084311;28;20631;-68
2022/02/06 10:42:33;;;;;;;3.60;0.90;;;;;;;5.21;67.50;97146.63;5079942;28;20051;-65
2022/02/06 10:45:20;;;;;;;6.63;1.40;;;;;;;5.43;66.85;97132.75;5080299;28;20519;-66
2022/02/06 10:47:50;;;;;;;3.15;0.98;;;;;;;5.62;65.88;97124.66;5086189;28;20057;-72
2022/02/06 10:50:25;;;;;;;3.42;1.00;;;;;;;5.57;65.72;97128.84;5089358;28;20051;-65
2022/02/06 10:53:04;;;;;;;1.02;0.40;;;;;;;5.76;65.59;97112.72;5083840;28;20052;-66
2022/02/06 10:55:31;;;;;;;1.25;0.70;;;;;;;5.92;64.37;97099.66;5083353;28;20057;-66
2022/02/06 10:58:00;;;;;;;2.90;0.80;;;;;;;5.93;65.13;97091.38;5085481;28;20056;-63
2022/02/06 11:00:33;;;;;;;3.35;1.05;;;;;;;5.76;65.47;97101.97;5086685;28;20040;-64
2022/02/06 11:03:21;;;;;;;1.90;0.73;;;;;;;5.83;65.17;97086.56;5080231;28;20126;-63
2022/02/06 11:05:53;;;;;;;5.70;1.33;;;;;;;5.71;65.53;97075.78;5073525;28;20055;-66
2022/02/06 11:08:29;;;;;;;3.80;0.77;;;;;;;5.72;65.47;97074.72;5082904;28;20052;-64
2022/02/06 11:11:00;;;;;;;2.80;0.93;;;;;;;5.72;66.14;97076.59;5075807;28;20043;-66
2022/02/06 11:13:28;;;;;;;3.03;0.80;;;;;;;5.58;66.71;97084.00;5081737;28;20050;-65
2022/02/06 11:15:57;;;;;;;1.70;0.50;;;;;;;5.64;67.24;97072.34;5083583;28;20325;-62
2022/02/06 11:18:32;;;;;;;1.80;0.63;;;;;;;5.65;67.87;97083.94;5082905;28;20036;-63
2022/02/06 11:21:04;;;;;;;1.10;0.60;;;;;;;5.61;68.25;97070.16;5082497;28;20052;-64
2022/02/06 11:23:39;;;;;;;5.07;1.15;;;;;;;5.41;69.68;97071.22;5082608;28;20653;-66
2022/02/06 11:26:27;;;;;;;3.28;1.27;;;;;;;5.41;71.22;97051.59;5083894;28;20036;-63
2022/02/06 11:28:55;;;;;;;1.45;0.50;;;;;;;5.42;69.98;97066.66;5082910;28;20109;-63
2022/02/06 11:31:22;;;;;;;2.88;0.80;;;;;;;5.29;71.31;97044.31;5087026;28;20051;-64
2022/02/06 11:33:50;;;;;;;2.72;0.60;;;;;;;5.31;71.94;97022.63;5082422;28;20044;-63
2022/02/06 11:43:00;;;;;;;2.65;0.60;;;;;;;5.21;71.71;97032.00;5082004;28;20040;-63
2022/02/06 11:45:26;;;;;;;4.38;0.73;;;;;;;5.21;72.63;97007.03;5079050;28;20057;-63
2022/02/06 11:48:00;;;;;;;2.25;0.50;;;;;;;5.16;73.56;96993.47;5076908;28;20041;-63
2022/02/06 11:50:29;;;;;;;1.05;0.60;;;;;;;5.20;72.31;97000.03;5082622;28;20036;-63
2022/02/06 11:52:58;;;;;;;2.55;0.65;;;;;;;5.32;72.67;96989.34;5094264;28;20441;-62
2022/02/06 11:55:49;;;;;;;1.45;0.60;;;;;;;5.30;73.34;96975.31;5080233;28;20044;-64
2022/02/06 11:58:33;;;;;;;1.27;0.50;;;;;;;5.24;72.40;96960.97;5082844;28;20628;-64
2022/02/06 12:01:05;;;;;;;2.28;0.70;;;;;;;5.02;74.51;96961.44;5105498;28;20536;-63
2022/02/06 12:03:53;;;;;;;3.67;0.80;;;;;;;5.01;74.84;96946.38;5081026;28;20044;-63
2022/02/06 12:06:24;;;;;;;0.82;0.47;;;;;;;5.06;74.70;96946.50;5081914;28;20036;-67
2022/02/06 12:09:00;;;;;;;1.67;0.70;;;;;;;5.12;75.08;96935.94;5078380;28;20055;-63
2022/02/06 12:11:34;;;;;;;2.22;0.80;;;;;;;5.23;74.09;96919.03;5078047;28;20345;-63
2022/02/06 12:14:08;;;;;;;0.50;0.30;;;;;;;5.00;74.76;96909.88;5085747;28;20059;-60
2022/02/06 12:16:47;;;;;;;2.35;0.55;;;;;;;5.00;75.46;96909.03;5086402;28;20040;-61
2022/02/06 12:19:28;;;;;;;0.32;0.30;;;;;;;5.14;75.33;96915.88;5080156;28;20461;-62
2022/02/06 12:21:56;;;;;;;1.58;0.70;;;;;;;4.99;75.46;96885.94;5086826;28;20089;-64
2022/02/06 12:24:36;;;;;;;1.58;0.68;;;;;;;4.93;75.07;96883.13;5085003;28;20048;-65
2022/02/06 12:27:27;;;;;;;1.02;0.60;;;;;;;4.98;74.82;96884.31;5088596;28;20044;-65
2022/02/06 12:29:59;;;;;;;2.42;0.73;;;;;;;4.85;75.11;96866.50;5090228;28;20121;-66
2022/02/06 12:32:39;;;;;;;1.08;0.55;;;;;;;5.06;74.22;96865.22;5077242;28;20489;-66
2022/02/06 12:37:56;;;;;;;2.05;0.50;;;;;;;5.11;74.52;96856.44;5085284;28;20040;-62
2022/02/06 12:40:25;;;;;;;1.00;0.50;;;;;;;5.01;74.91;96847.09;5086809;28;20465;-62
2022/02/06 12:43:00;;;;;;;2.20;0.40;;;;;;;5.13;74.37;96851.69;5085420;28;20036;-62
2022/02/06 12:45:28;;;;;;;1.90;0.55;;;;;;;5.15;74.01;96844.22;5073620;28;20465;-61
2022/02/06 12:47:59;;;;;;;1.75;0.52;;;;;;;5.18;74.92;96824.97;5085615;28;20384;-62
2022/02/06 12:50:30;;;;;;;2.25;0.40;;;;;;;5.07;74.35;96837.31;5072762;28;20713;-62
2022/02/06 12:52:58;;;;;;;1.50;0.50;;;;;;;5.23;74.20;96835.03;5081344;28;20043;-61
2022/02/06 12:55:32;;;;;;;0.75;0.30;;;;;;;5.12;75.48;96818.66;5094496;28;20545;-61
2022/02/06 12:57:59;;;;;;;0.28;0.28;;;;;;;5.08;75.00;96810.25;5088715;28;20487;-61
2022/02/06 13:00:32;;;;;;;2.38;0.65;;;;;;;5.01;75.15;96824.81;5085150;28;20048;-62
2022/02/06 13:03:31;;;;;;;0.77;0.52;;;;;;;4.85;76.16;96802.97;5083748;28;20692;-62
2022/02/06 13:06:08;;;;;;;2.10;0.70;;;;;;;4.79;76.66;96799.31;5076487;28;20048;-61
2022/02/06 13:08:39;;;;;;;2.38;0.50;;;;;;;4.85;76.49;96805.66;5086433;28;20049;-61
2022/02/06 13:11:23;;;;;;;2.05;0.40;;;;;;;4.75;77.39;96792.78;5087928;28;20123;-61
2022/02/06 13:13:58;;;;;;;1.25;0.50;;;;;;;4.62;76.96;96801.84;5073921;28;20110;-61
2022/02/06 13:16:49;;;;;;;2.05;0.40;;;;;;;4.62;77.22;96787.63;5067045;28;20377;-62
2022/02/06 13:25:14;;;;;;;2.83;0.70;;;;;;;4.51;77.16;96754.34;5068358;28;20129;-62
2022/02/06 13:28:00;;;;;;;0.85;0.43;;;;;;;4.41;78.87;96749.53;5070549;28;20036;-62
2022/02/06 13:32:54;;;;;;;0.95;0.30;;;;;;;4.47;78.31;96737.09;5079800;28;20089;-62
2022/02/06 13:38:01;;;;;;;0.68;0.30;;;;;;;4.28;79.90;96746.00;5078432;28;20040;-62
2022/02/06 13:40:31;;;;;;;0.52;0.32;;;;;;;4.22;79.31;96751.44;5075067;28;20535;-62
2022/02/06 13:43:13;;;;;;;3.40;0.40;;;;;;;4.18;79.42;96737.69;5084794;28;20121;-61
2022/02/06 13:45:42;;;;;;;1.60;0.38;;;;;;;4.11;80.16;96728.91;5084416;28;20087;-62
2022/02/06 13:48:10;;;;;;;0.85;0.30;;;;;;;4.13;79.81;96726.84;5083668;28;20146;-61
2022/02/06 13:50:43;;;;;;;0.98;0.47;;;;;;;4.02;80.36;96734.56;5084472;28;20036;-61
2022/02/06 13:53:12;;;;;;;0.47;0.47;;;;;;;4.05;81.27;96719.91;5084921;28;20573;-61
2022/02/06 13:55:50;;;;;;;1.92;0.95;;;;;;;3.92;82.02;96720.09;5083250;28;20040;-61
2022/02/06 13:58:21;;;;;;;0.50;0.40;;;;;;;3.87;81.68;96720.78;5074735;28;20141;-61
2022/02/06 14:01:06;;;;;;;2.20;0.55;;;;;;;3.81;81.88;96702.91;5102443;28;20097;-61
2022/02/06 14:03:43;;;;;;;1.67;0.60;;;;;;;3.79;82.74;96689.75;5087085;28;20101;-61